sensor_id;sensor_type;location;lat;lon;timestamp;temperature;humidity
21759;DHT22;11041;50.854;20.580;2023-08-20T00:00:24;19.90;99.90
21759;DHT22;11041;50.854;20.580;2023-08-20T00:03:20;19.90;99.90
21759;DHT22;11041;50.854;20.580;2023-08-20T00:05:50;19.80;99.90
21759;DHT22;11041;50.854;20.580;2023-08-20T00:08:19;19.80;99.90
21759;DHT22;11041;50.854;20.580;2023-08-20T00:10:53;19.80;99.90
21759;DHT22;11041;50.854;20.580;2023-08-20T00:13:26;19.80;99.90
21759;DHT22;11041;50.854;20.580;2023-08-20T00:15:53;19.70;99.90
21759;DHT22;11041;50.854;20.580;2023-08-20T00:18:25;19.70;99.90
21759;DHT22;11041;50.854;20.580;2023-08-20T00:20:59;19.60;99.90
21759;DHT22;11041;50.854;20.580;2023-08-20T00:23:28;19.60;99.90
21759;DHT22;11041;50.854;20.580;2023-08-20T00:26:01;19.60;99.90
21759;DHT22;11041;50.854;20.580;2023-08-20T00:28:35;19.50;99.90
21759;DHT22;11041;50.854;20.580;2023-08-20T00:31:06;19.50;99.90
21759;DHT22;11041;50.854;20.580;2023-08-20T00:33:40;19.50;99.90
21759;DHT22;11041;50.854;20.580;2023-08-20T00:36:14;19.50;99.90
21759;DHT22;11041;50.854;20.580;2023-08-20T00:38:45;19.60;99.90
21759;DHT22;11041;50.854;20.580;2023-08-20T00:41:15;19.40;99.90
21759;DHT22;11041;50.854;20.580;2023-08-20T00:43:50;19.40;99.90
21759;DHT22;11041;50.854;20.580;2023-08-20T00:46:25;19.50;99.90
21759;DHT22;11041;50.854;20.580;2023-08-20T00:48:56;19.50;99.90
21759;DHT22;11041;50.854;20.580;2023-08-20T00:51:26;19.50;99.90
21759;DHT22;11041;50.854;20.580;2023-08-20T00:53:56;19.40;99.90
21759;DHT22;11041;50.854;20.580;2023-08-20T00:56:28;19.40;99.90
21759;DHT22;11041;50.854;20.580;2023-08-20T00:59:01;19.40;99.90
21759;DHT22;11041;50.854;20.580;2023-08-20T01:01:35;19.40;99.90
21759;DHT22;11041;50.854;20.580;2023-08-20T01:04:05;19.50;99.90
21759;DHT22;11041;50.854;20.580;2023-08-20T01:09:45;19.50;99.90
21759;DHT22;11041;50.854;20.580;2023-08-20T01:12:25;19.40;99.90
21759;DHT22;11041;50.854;20.580;2023-08-20T01:14:59;19.40;99.90
21759;DHT22;11041;50.854;20.580;2023-08-20T01:17:27;19.40;99.90
21759;DHT22;11041;50.854;20.580;2023-08-20T01:19:59;19.30;99.90
21759;DHT22;11041;50.854;20.580;2023-08-20T01:22:56;19.30;99.90
21759;DHT22;11041;50.854;20.580;2023-08-20T01:29:06;19.30;99.90
21759;DHT22;11041;50.854;20.580;2023-08-20T01:31:37;19.10;99.90
21759;DHT22;11041;50.854;20.580;2023-08-20T01:34:10;19.10;99.90
21759;DHT22;11041;50.854;20.580;2023-08-20T01:36:43;19.10;99.90
21759;DHT22;11041;50.854;20.580;2023-08-20T01:39:15;19.20;99.90
21759;DHT22;11041;50.854;20.580;2023-08-20T01:41:48;19.20;99.90
21759;DHT22;11041;50.854;20.580;2023-08-20T01:44:22;19.10;99.90
21759;DHT22;11041;50.854;20.580;2023-08-20T01:46:57;19.10;99.90
21759;DHT22;11041;50.854;20.580;2023-08-20T01:49:27;19.10;99.90
21759;DHT22;11041;50.854;20.580;2023-08-20T01:51:53;19.00;99.90
21759;DHT22;11041;50.854;20.580;2023-08-20T01:54:20;19.10;99.90
21759;DHT22;11041;50.854;20.580;2023-08-20T01:56:57;19.10;99.90
21759;DHT22;11041;50.854;20.580;2023-08-20T01:59:29;19.00;99.90
21759;DHT22;11041;50.854;20.580;2023-08-20T02:02:01;19.00;99.90
21759;DHT22;11041;50.854;20.580;2023-08-20T02:04:34;19.00;99.90
21759;DHT22;11041;50.854;20.580;2023-08-20T02:07:01;19.00;99.90
21759;DHT22;11041;50.854;20.580;2023-08-20T02:09:37;19.00;99.90
21759;DHT22;11041;50.854;20.580;2023-08-20T02:12:06;19.00;99.90
21759;DHT22;11041;50.854;20.580;2023-08-20T02:14:42;19.00;99.90
21759;DHT22;11041;50.854;20.580;2023-08-20T02:17:11;18.90;99.90
21759;DHT22;11041;50.854;20.580;2023-08-20T02:19:44;18.90;99.90
21759;DHT22;11041;50.854;20.580;2023-08-20T02:22:16;18.90;99.90
21759;DHT22;11041;50.854;20.580;2023-08-20T02:24:51;18.80;99.90
21759;DHT22;11041;50.854;20.580;2023-08-20T02:27:25;18.90;99.90
21759;DHT22;11041;50.854;20.580;2023-08-20T02:29:55;18.80;99.90
21759;DHT22;11041;50.854;20.580;2023-08-20T02:32:27;18.80;99.90
21759;DHT22;11041;50.854;20.580;2023-08-20T02:35:00;18.80;99.90
21759;DHT22;11041;50.854;20.580;2023-08-20T02:37:29;18.80;99.90
21759;DHT22;11041;50.854;20.580;2023-08-20T02:40:01;18.70;99.90
21759;DHT22;11041;50.854;20.580;2023-08-20T02:42:28;18.70;99.90
21759;DHT22;11041;50.854;20.580;2023-08-20T02:44:58;18.70;99.90
21759;DHT22;11041;50.854;20.580;2023-08-20T02:47:30;18.70;99.90
21759;DHT22;11041;50.854;20.580;2023-08-20T02:49:57;18.70;99.90
21759;DHT22;11041;50.854;20.580;2023-08-20T02:52:27;18.60;99.90
21759;DHT22;11041;50.854;20.580;2023-08-20T02:55:02;18.60;99.90
21759;DHT22;11041;50.854;20.580;2023-08-20T02:57:35;18.60;99.90
21759;DHT22;11041;50.854;20.580;2023-08-20T03:00:04;18.60;99.90
21759;DHT22;11041;50.854;20.580;2023-08-20T03:02:33;18.50;99.90
21759;DHT22;11041;50.854;20.580;2023-08-20T03:05:07;18.60;99.90
21759;DHT22;11041;50.854;20.580;2023-08-20T03:07:41;18.60;99.90
21759;DHT22;11041;50.854;20.580;2023-08-20T03:10:16;18.60;99.90
21759;DHT22;11041;50.854;20.580;2023-08-20T03:12:47;18.50;99.90
21759;DHT22;11041;50.854;20.580;2023-08-20T03:15:21;18.50;99.90
21759;DHT22;11041;50.854;20.580;2023-08-20T03:17:52;18.50;99.90
21759;DHT22;11041;50.854;20.580;2023-08-20T03:20:21;18.50;99.90
21759;DHT22;11041;50.854;20.580;2023-08-20T03:22:52;18.40;99.90
21759;DHT22;11041;50.854;20.580;2023-08-20T03:25:21;18.50;99.90
21759;DHT22;11041;50.854;20.580;2023-08-20T03:27:53;18.50;99.90
21759;DHT22;11041;50.854;20.580;2023-08-20T03:30:22;18.50;99.90
21759;DHT22;11041;50.854;20.580;2023-08-20T03:32:53;18.50;99.90
21759;DHT22;11041;50.854;20.580;2023-08-20T03:35:28;18.30;99.90
21759;DHT22;11041;50.854;20.580;2023-08-20T03:37:57;18.30;99.90
21759;DHT22;11041;50.854;20.580;2023-08-20T03:40:25;18.30;99.90
21759;DHT22;11041;50.854;20.580;2023-08-20T03:42:57;18.30;99.90
21759;DHT22;11041;50.854;20.580;2023-08-20T03:45:28;18.40;99.90
21759;DHT22;11041;50.854;20.580;2023-08-20T03:48:01;18.40;99.90
21759;DHT22;11041;50.854;20.580;2023-08-20T03:50:33;18.40;99.90
21759;DHT22;11041;50.854;20.580;2023-08-20T03:53:05;18.40;99.90
21759;DHT22;11041;50.854;20.580;2023-08-20T03:55:37;18.40;99.90
21759;DHT22;11041;50.854;20.580;2023-08-20T03:58:13;18.50;99.90
21759;DHT22;11041;50.854;20.580;2023-08-20T04:00:45;18.50;99.90
21759;DHT22;11041;50.854;20.580;2023-08-20T04:03:12;18.50;99.90
21759;DHT22;11041;50.854;20.580;2023-08-20T04:05:45;18.60;99.90
21759;DHT22;11041;50.854;20.580;2023-08-20T04:08:14;18.50;99.90
21759;DHT22;11041;50.854;20.580;2023-08-20T04:10:47;18.60;99.90
21759;DHT22;11041;50.854;20.580;2023-08-20T04:13:22;18.60;99.90
21759;DHT22;11041;50.854;20.580;2023-08-20T04:15:50;18.60;99.90
21759;DHT22;11041;50.854;20.580;2023-08-20T04:18:22;18.60;99.90
21759;DHT22;11041;50.854;20.580;2023-08-20T04:20:54;18.70;99.90
21759;DHT22;11041;50.854;20.580;2023-08-20T04:23:26;18.70;99.90
21759;DHT22;11041;50.854;20.580;2023-08-20T04:25:57;18.70;99.90
21759;DHT22;11041;50.854;20.580;2023-08-20T04:28:30;18.80;99.90
21759;DHT22;11041;50.854;20.580;2023-08-20T04:31:00;18.80;99.90
21759;DHT22;11041;50.854;20.580;2023-08-20T04:33:28;18.60;99.90
21759;DHT22;11041;50.854;20.580;2023-08-20T04:35:59;18.60;99.90
21759;DHT22;11041;50.854;20.580;2023-08-20T04:38:29;18.70;99.90
21759;DHT22;11041;50.854;20.580;2023-08-20T04:40:59;18.80;99.90
21759;DHT22;11041;50.854;20.580;2023-08-20T04:43:33;18.80;99.90
21759;DHT22;11041;50.854;20.580;2023-08-20T04:46:04;18.80;99.90
21759;DHT22;11041;50.854;20.580;2023-08-20T04:48:35;18.90;99.90
21759;DHT22;11041;50.854;20.580;2023-08-20T04:51:07;18.90;99.90
21759;DHT22;11041;50.854;20.580;2023-08-20T04:53:38;19.00;99.90
21759;DHT22;11041;50.854;20.580;2023-08-20T04:56:09;19.00;99.90
21759;DHT22;11041;50.854;20.580;2023-08-20T04:58:39;19.00;99.90
21759;DHT22;11041;50.854;20.580;2023-08-20T05:01:10;19.10;99.90
21759;DHT22;11041;50.854;20.580;2023-08-20T05:03:39;19.10;99.90
21759;DHT22;11041;50.854;20.580;2023-08-20T05:06:10;19.10;99.90
21759;DHT22;11041;50.854;20.580;2023-08-20T05:08:39;19.10;99.90
21759;DHT22;11041;50.854;20.580;2023-08-20T05:11:10;19.20;99.90
21759;DHT22;11041;50.854;20.580;2023-08-20T05:13:45;19.10;99.90
21759;DHT22;11041;50.854;20.580;2023-08-20T05:16:13;19.10;99.90
21759;DHT22;11041;50.854;20.580;2023-08-20T05:18:46;19.10;99.90
21759;DHT22;11041;50.854;20.580;2023-08-20T05:21:15;19.20;99.90
21759;DHT22;11041;50.854;20.580;2023-08-20T05:23:47;19.30;99.90
21759;DHT22;11041;50.854;20.580;2023-08-20T05:26:14;19.40;99.90
21759;DHT22;11041;50.854;20.580;2023-08-20T05:28:41;19.50;99.90
21759;DHT22;11041;50.854;20.580;2023-08-20T05:31:10;19.70;99.90
21759;DHT22;11041;50.854;20.580;2023-08-20T05:33:36;19.80;99.90
21759;DHT22;11041;50.854;20.580;2023-08-20T05:36:04;19.80;99.90
21759;DHT22;11041;50.854;20.580;2023-08-20T05:38:37;19.90;99.90
21759;DHT22;11041;50.854;20.580;2023-08-20T05:41:05;20.10;99.90
21759;DHT22;11041;50.854;20.580;2023-08-20T05:43:37;20.10;99.90
21759;DHT22;11041;50.854;20.580;2023-08-20T05:46:04;20.20;99.90
21759;DHT22;11041;50.854;20.580;2023-08-20T05:48:32;20.30;99.90
21759;DHT22;11041;50.854;20.580;2023-08-20T05:50:59;20.30;99.90
21759;DHT22;11041;50.854;20.580;2023-08-20T05:53:28;20.40;99.90
21759;DHT22;11041;50.854;20.580;2023-08-20T05:55:55;20.50;99.90
21759;DHT22;11041;50.854;20.580;2023-08-20T05:58:21;20.60;99.90
21759;DHT22;11041;50.854;20.580;2023-08-20T06:00:48;20.70;99.90
21759;DHT22;11041;50.854;20.580;2023-08-20T06:03:15;20.80;99.90
21759;DHT22;11041;50.854;20.580;2023-08-20T06:05:41;20.90;99.90
21759;DHT22;11041;50.854;20.580;2023-08-20T06:08:10;21.10;99.90
21759;DHT22;11041;50.854;20.580;2023-08-20T06:10:37;21.20;99.90
21759;DHT22;11041;50.854;20.580;2023-08-20T06:13:04;21.30;99.90
21759;DHT22;11041;50.854;20.580;2023-08-20T06:15:31;21.50;99.90
21759;DHT22;11041;50.854;20.580;2023-08-20T06:17:58;21.60;99.90
21759;DHT22;11041;50.854;20.580;2023-08-20T06:20:27;21.60;99.90
21759;DHT22;11041;50.854;20.580;2023-08-20T06:23:04;21.70;99.90
21759;DHT22;11041;50.854;20.580;2023-08-20T06:25:34;21.80;99.90
21759;DHT22;11041;50.854;20.580;2023-08-20T06:28:01;21.90;99.90
21759;DHT22;11041;50.854;20.580;2023-08-20T06:30:34;22.00;99.90
21759;DHT22;11041;50.854;20.580;2023-08-20T06:33:08;22.20;99.90
21759;DHT22;11041;50.854;20.580;2023-08-20T06:35:43;22.30;99.90
21759;DHT22;11041;50.854;20.580;2023-08-20T06:38:13;22.40;99.90
21759;DHT22;11041;50.854;20.580;2023-08-20T06:40:48;22.40;99.90
21759;DHT22;11041;50.854;20.580;2023-08-20T06:43:21;22.50;99.90
21759;DHT22;11041;50.854;20.580;2023-08-20T06:45:55;22.60;99.90
21759;DHT22;11041;50.854;20.580;2023-08-20T06:48:23;22.60;99.90
21759;DHT22;11041;50.854;20.580;2023-08-20T06:50:52;22.70;99.90
21759;DHT22;11041;50.854;20.580;2023-08-20T06:53:19;22.90;99.90
21759;DHT22;11041;50.854;20.580;2023-08-20T06:55:46;23.00;99.90
21759;DHT22;11041;50.854;20.580;2023-08-20T06:58:12;22.90;99.90
21759;DHT22;11041;50.854;20.580;2023-08-20T07:00:41;23.00;99.90
21759;DHT22;11041;50.854;20.580;2023-08-20T07:03:17;23.10;99.90
21759;DHT22;11041;50.854;20.580;2023-08-20T07:05:45;23.10;99.90
21759;DHT22;11041;50.854;20.580;2023-08-20T07:08:15;23.20;99.90
21759;DHT22;11041;50.854;20.580;2023-08-20T07:10:46;23.30;99.90
21759;DHT22;11041;50.854;20.580;2023-08-20T07:13:13;23.40;99.90
21759;DHT22;11041;50.854;20.580;2023-08-20T07:15:42;23.50;99.90
21759;DHT22;11041;50.854;20.580;2023-08-20T07:18:09;23.50;99.90
21759;DHT22;11041;50.854;20.580;2023-08-20T07:20:44;23.70;99.90
21759;DHT22;11041;50.854;20.580;2023-08-20T07:23:11;23.80;99.90
21759;DHT22;11041;50.854;20.580;2023-08-20T07:25:41;23.90;99.90
21759;DHT22;11041;50.854;20.580;2023-08-20T07:28:09;23.90;99.90
21759;DHT22;11041;50.854;20.580;2023-08-20T07:30:40;24.00;99.90
21759;DHT22;11041;50.854;20.580;2023-08-20T07:33:09;24.00;99.90
21759;DHT22;11041;50.854;20.580;2023-08-20T07:35:37;24.20;99.90
21759;DHT22;11041;50.854;20.580;2023-08-20T07:38:05;24.30;99.90
21759;DHT22;11041;50.854;20.580;2023-08-20T07:40:35;24.30;99.90
21759;DHT22;11041;50.854;20.580;2023-08-20T07:43:03;24.50;99.90
21759;DHT22;11041;50.854;20.580;2023-08-20T07:45:35;24.60;99.90
21759;DHT22;11041;50.854;20.580;2023-08-20T07:48:08;24.70;99.90
21759;DHT22;11041;50.854;20.580;2023-08-20T07:50:35;24.80;99.90
21759;DHT22;11041;50.854;20.580;2023-08-20T07:53:02;24.80;99.90
21759;DHT22;11041;50.854;20.580;2023-08-20T07:55:33;24.90;99.90
21759;DHT22;11041;50.854;20.580;2023-08-20T07:58:09;24.90;99.90
21759;DHT22;11041;50.854;20.580;2023-08-20T08:00:36;25.00;99.90
21759;DHT22;11041;50.854;20.580;2023-08-20T08:03:05;25.00;99.90
21759;DHT22;11041;50.854;20.580;2023-08-20T08:05:33;25.10;99.90
21759;DHT22;11041;50.854;20.580;2023-08-20T08:07:59;25.20;99.90
21759;DHT22;11041;50.854;20.580;2023-08-20T08:10:31;25.20;99.90
21759;DHT22;11041;50.854;20.580;2023-08-20T08:12:58;25.10;99.90
21759;DHT22;11041;50.854;20.580;2023-08-20T08:15:29;25.10;99.90
21759;DHT22;11041;50.854;20.580;2023-08-20T08:17:55;25.40;99.90
21759;DHT22;11041;50.854;20.580;2023-08-20T08:20:23;25.30;99.90
21759;DHT22;11041;50.854;20.580;2023-08-20T08:22:50;25.40;99.90
21759;DHT22;11041;50.854;20.580;2023-08-20T08:25:19;25.30;99.90
21759;DHT22;11041;50.854;20.580;2023-08-20T08:27:46;25.40;99.90
21759;DHT22;11041;50.854;20.580;2023-08-20T08:30:13;25.60;99.90
21759;DHT22;11041;50.854;20.580;2023-08-20T08:32:43;25.70;99.90
21759;DHT22;11041;50.854;20.580;2023-08-20T08:35:14;25.70;99.90
21759;DHT22;11041;50.854;20.580;2023-08-20T08:37:43;25.80;99.90
21759;DHT22;11041;50.854;20.580;2023-08-20T08:40:16;25.90;99.90
21759;DHT22;11041;50.854;20.580;2023-08-20T08:42:52;26.00;99.90
21759;DHT22;11041;50.854;20.580;2023-08-20T08:45:22;26.10;99.90
21759;DHT22;11041;50.854;20.580;2023-08-20T08:47:55;26.10;99.90
21759;DHT22;11041;50.854;20.580;2023-08-20T08:50:25;26.20;99.90
21759;DHT22;11041;50.854;20.580;2023-08-20T08:52:58;26.10;99.90
21759;DHT22;11041;50.854;20.580;2023-08-20T08:55:31;26.40;99.90
21759;DHT22;11041;50.854;20.580;2023-08-20T08:58:04;26.40;99.90
21759;DHT22;11041;50.854;20.580;2023-08-20T09:00:33;26.50;99.90
21759;DHT22;11041;50.854;20.580;2023-08-20T09:03:05;26.50;99.90
21759;DHT22;11041;50.854;20.580;2023-08-20T09:05:58;26.50;99.90
21759;DHT22;11041;50.854;20.580;2023-08-20T09:08:30;26.60;99.90
21759;DHT22;11041;50.854;20.580;2023-08-20T09:11:04;26.80;99.90
21759;DHT22;11041;50.854;20.580;2023-08-20T09:13:37;26.90;99.90
21759;DHT22;11041;50.854;20.580;2023-08-20T09:16:12;26.80;99.90
21759;DHT22;11041;50.854;20.580;2023-08-20T09:18:44;27.00;99.90
21759;DHT22;11041;50.854;20.580;2023-08-20T09:21:15;27.00;99.90
21759;DHT22;11041;50.854;20.580;2023-08-20T09:23:48;27.00;99.90
21759;DHT22;11041;50.854;20.580;2023-08-20T09:26:21;27.10;99.90
21759;DHT22;11041;50.854;20.580;2023-08-20T09:28:49;27.20;99.90
21759;DHT22;11041;50.854;20.580;2023-08-20T09:31:39;27.40;99.90
21759;DHT22;11041;50.854;20.580;2023-08-20T09:34:06;27.40;99.90
21759;DHT22;11041;50.854;20.580;2023-08-20T09:36:45;27.40;99.90
21759;DHT22;11041;50.854;20.580;2023-08-20T09:39:22;27.60;99.90
21759;DHT22;11041;50.854;20.580;2023-08-20T09:41:59;27.50;99.90
21759;DHT22;11041;50.854;20.580;2023-08-20T09:44:39;27.60;99.90
21759;DHT22;11041;50.854;20.580;2023-08-20T09:47:13;27.70;99.90
21759;DHT22;11041;50.854;20.580;2023-08-20T09:49:47;27.70;99.90
21759;DHT22;11041;50.854;20.580;2023-08-20T09:52:37;27.80;99.90
21759;DHT22;11041;50.854;20.580;2023-08-20T09:55:18;27.80;99.90
21759;DHT22;11041;50.854;20.580;2023-08-20T09:57:52;27.90;99.90
21759;DHT22;11041;50.854;20.580;2023-08-20T10:00:24;27.80;99.90
21759;DHT22;11041;50.854;20.580;2023-08-20T10:02:56;28.00;99.90
21759;DHT22;11041;50.854;20.580;2023-08-20T10:05:25;27.90;99.90
21759;DHT22;11041;50.854;20.580;2023-08-20T10:07:59;27.90;99.90
21759;DHT22;11041;50.854;20.580;2023-08-20T10:10:32;27.90;99.90
21759;DHT22;11041;50.854;20.580;2023-08-20T10:13:10;28.00;99.90
21759;DHT22;11041;50.854;20.580;2023-08-20T10:15:40;28.10;99.90
21759;DHT22;11041;50.854;20.580;2023-08-20T10:18:11;28.20;99.90
21759;DHT22;11041;50.854;20.580;2023-08-20T10:20:44;28.30;99.90
21759;DHT22;11041;50.854;20.580;2023-08-20T10:23:17;28.50;99.90
21759;DHT22;11041;50.854;20.580;2023-08-20T10:25:54;28.40;99.90
21759;DHT22;11041;50.854;20.580;2023-08-20T10:28:46;28.40;99.90
21759;DHT22;11041;50.854;20.580;2023-08-20T10:31:18;28.60;99.90
21759;DHT22;11041;50.854;20.580;2023-08-20T10:33:56;28.60;99.90
21759;DHT22;11041;50.854;20.580;2023-08-20T10:36:29;28.70;99.90
21759;DHT22;11041;50.854;20.580;2023-08-20T10:39:23;28.70;99.90
21759;DHT22;11041;50.854;20.580;2023-08-20T10:42:11;28.70;99.90
21759;DHT22;11041;50.854;20.580;2023-08-20T10:45:00;28.70;99.90
21759;DHT22;11041;50.854;20.580;2023-08-20T10:47:42;28.80;99.90
21759;DHT22;11041;50.854;20.580;2023-08-20T10:50:20;28.70;99.90
21759;DHT22;11041;50.854;20.580;2023-08-20T10:52:54;28.70;99.90
21759;DHT22;11041;50.854;20.580;2023-08-20T10:55:26;28.60;99.90
21759;DHT22;11041;50.854;20.580;2023-08-20T10:58:02;28.70;99.90
21759;DHT22;11041;50.854;20.580;2023-08-20T11:00:38;28.90;99.90
21759;DHT22;11041;50.854;20.580;2023-08-20T11:03:08;28.90;99.90
21759;DHT22;11041;50.854;20.580;2023-08-20T11:05:39;28.90;99.90
21759;DHT22;11041;50.854;20.580;2023-08-20T11:08:08;29.00;99.90
21759;DHT22;11041;50.854;20.580;2023-08-20T11:10:44;29.00;99.90
21759;DHT22;11041;50.854;20.580;2023-08-20T11:13:15;28.80;99.90
21759;DHT22;11041;50.854;20.580;2023-08-20T11:15:50;28.90;99.90
21759;DHT22;11041;50.854;20.580;2023-08-20T11:18:19;29.10;99.90
21759;DHT22;11041;50.854;20.580;2023-08-20T11:20:52;29.10;99.90
21759;DHT22;11041;50.854;20.580;2023-08-20T11:23:25;29.10;99.90
21759;DHT22;11041;50.854;20.580;2023-08-20T11:25:58;29.00;99.90
21759;DHT22;11041;50.854;20.580;2023-08-20T11:28:29;29.00;99.90
21759;DHT22;11041;50.854;20.580;2023-08-20T11:31:01;29.10;99.90
21759;DHT22;11041;50.854;20.580;2023-08-20T11:33:37;29.10;99.90
21759;DHT22;11041;50.854;20.580;2023-08-20T11:36:13;29.20;99.90
21759;DHT22;11041;50.854;20.580;2023-08-20T11:38:56;29.50;99.90
21759;DHT22;11041;50.854;20.580;2023-08-20T11:41:35;29.50;99.90
21759;DHT22;11041;50.854;20.580;2023-08-20T11:44:08;29.70;99.90
21759;DHT22;11041;50.854;20.580;2023-08-20T11:46:44;29.60;99.90
21759;DHT22;11041;50.854;20.580;2023-08-20T11:49:15;29.70;99.90
21759;DHT22;11041;50.854;20.580;2023-08-20T11:51:55;29.70;99.90
21759;DHT22;11041;50.854;20.580;2023-08-20T11:54:31;29.40;99.90
21759;DHT22;11041;50.854;20.580;2023-08-20T11:57:11;29.70;99.90
21759;DHT22;11041;50.854;20.580;2023-08-20T11:59:45;29.80;99.90
21759;DHT22;11041;50.854;20.580;2023-08-20T12:02:27;30.00;99.90
21759;DHT22;11041;50.854;20.580;2023-08-20T12:05:00;29.70;99.90
21759;DHT22;11041;50.854;20.580;2023-08-20T12:07:31;29.80;99.90
21759;DHT22;11041;50.854;20.580;2023-08-20T12:09:58;29.80;99.90
21759;DHT22;11041;50.854;20.580;2023-08-20T12:12:56;29.50;99.90
21759;DHT22;11041;50.854;20.580;2023-08-20T12:15:28;29.60;99.90
21759;DHT22;11041;50.854;20.580;2023-08-20T12:18:04;29.70;99.90
21759;DHT22;11041;50.854;20.580;2023-08-20T12:20:40;29.60;99.90
21759;DHT22;11041;50.854;20.580;2023-08-20T12:23:14;29.70;99.90
21759;DHT22;11041;50.854;20.580;2023-08-20T12:25:51;30.20;99.90
21759;DHT22;11041;50.854;20.580;2023-08-20T12:28:23;30.20;99.90
21759;DHT22;11041;50.854;20.580;2023-08-20T12:30:54;30.20;99.90
21759;DHT22;11041;50.854;20.580;2023-08-20T12:33:35;30.10;99.90
21759;DHT22;11041;50.854;20.580;2023-08-20T12:36:04;29.80;99.90
21759;DHT22;11041;50.854;20.580;2023-08-20T12:38:44;29.80;99.90
21759;DHT22;11041;50.854;20.580;2023-08-20T12:41:13;30.00;99.90
21759;DHT22;11041;50.854;20.580;2023-08-20T12:43:48;30.10;99.90
21759;DHT22;11041;50.854;20.580;2023-08-20T12:46:17;30.50;99.90
21759;DHT22;11041;50.854;20.580;2023-08-20T12:48:51;30.20;99.90
21759;DHT22;11041;50.854;20.580;2023-08-20T12:51:22;30.40;99.90
21759;DHT22;11041;50.854;20.580;2023-08-20T12:53:59;30.50;99.90
21759;DHT22;11041;50.854;20.580;2023-08-20T12:56:31;31.00;99.90
21759;DHT22;11041;50.854;20.580;2023-08-20T12:59:08;31.20;99.90
21759;DHT22;11041;50.854;20.580;2023-08-20T13:01:40;31.10;99.90
21759;DHT22;11041;50.854;20.580;2023-08-20T13:04:17;31.00;99.90
21759;DHT22;11041;50.854;20.580;2023-08-20T13:06:49;31.50;99.90
21759;DHT22;11041;50.854;20.580;2023-08-20T13:09:23;32.10;99.90
21759;DHT22;11041;50.854;20.580;2023-08-20T13:12:00;32.30;99.90
21759;DHT22;11041;50.854;20.580;2023-08-20T13:14:32;32.40;99.90
21759;DHT22;11041;50.854;20.580;2023-08-20T13:17:04;32.70;99.90
21759;DHT22;11041;50.854;20.580;2023-08-20T13:19:42;32.60;99.90
21759;DHT22;11041;50.854;20.580;2023-08-20T13:22:14;32.10;99.90
21759;DHT22;11041;50.854;20.580;2023-08-20T13:24:47;31.10;99.90
21759;DHT22;11041;50.854;20.580;2023-08-20T13:27:21;31.20;99.90
21759;DHT22;11041;50.854;20.580;2023-08-20T13:29:56;31.50;99.90
21759;DHT22;11041;50.854;20.580;2023-08-20T13:32:28;31.30;99.90
21759;DHT22;11041;50.854;20.580;2023-08-20T13:35:00;31.50;99.90
21759;DHT22;11041;50.854;20.580;2023-08-20T13:37:31;31.50;99.90
21759;DHT22;11041;50.854;20.580;2023-08-20T13:40:00;31.70;99.90
21759;DHT22;11041;50.854;20.580;2023-08-20T13:42:32;31.80;99.90
21759;DHT22;11041;50.854;20.580;2023-08-20T13:45:02;31.50;99.90
21759;DHT22;11041;50.854;20.580;2023-08-20T13:47:32;31.60;99.90
21759;DHT22;11041;50.854;20.580;2023-08-20T13:50:06;31.70;99.90
21759;DHT22;11041;50.854;20.580;2023-08-20T13:52:37;32.20;99.90
21759;DHT22;11041;50.854;20.580;2023-08-20T13:55:11;32.30;99.90
21759;DHT22;11041;50.854;20.580;2023-08-20T13:57:42;31.80;99.90
21759;DHT22;11041;50.854;20.580;2023-08-20T14:00:15;32.10;99.90
21759;DHT22;11041;50.854;20.580;2023-08-20T14:02:46;32.10;99.90
21759;DHT22;11041;50.854;20.580;2023-08-20T14:05:19;31.80;99.90
21759;DHT22;11041;50.854;20.580;2023-08-20T14:07:52;31.80;99.90
21759;DHT22;11041;50.854;20.580;2023-08-20T14:10:23;32.20;99.90
21759;DHT22;11041;50.854;20.580;2023-08-20T14:12:58;32.60;99.90
21759;DHT22;11041;50.854;20.580;2023-08-20T14:15:34;33.20;99.90
21759;DHT22;11041;50.854;20.580;2023-08-20T14:18:05;33.70;99.90
21759;DHT22;11041;50.854;20.580;2023-08-20T14:20:41;33.50;99.90
21759;DHT22;11041;50.854;20.580;2023-08-20T14:23:09;32.90;99.90
21759;DHT22;11041;50.854;20.580;2023-08-20T14:25:40;32.80;99.90
21759;DHT22;11041;50.854;20.580;2023-08-20T14:28:08;32.60;99.90
21759;DHT22;11041;50.854;20.580;2023-08-20T14:30:40;32.20;99.90
21759;DHT22;11041;50.854;20.580;2023-08-20T14:33:13;32.90;99.90
21759;DHT22;11041;50.854;20.580;2023-08-20T14:35:48;32.90;99.90
21759;DHT22;11041;50.854;20.580;2023-08-20T14:38:18;32.30;99.90
21759;DHT22;11041;50.854;20.580;2023-08-20T14:40:49;31.80;99.90
21759;DHT22;11041;50.854;20.580;2023-08-20T14:43:21;32.10;99.90
21759;DHT22;11041;50.854;20.580;2023-08-20T14:45:50;32.50;99.90
21759;DHT22;11041;50.854;20.580;2023-08-20T14:48:25;32.00;99.90
21759;DHT22;11041;50.854;20.580;2023-08-20T14:50:58;32.50;99.90
21759;DHT22;11041;50.854;20.580;2023-08-20T14:53:30;32.50;99.90
21759;DHT22;11041;50.854;20.580;2023-08-20T14:56:03;33.00;99.90
21759;DHT22;11041;50.854;20.580;2023-08-20T14:58:35;32.50;99.90
21759;DHT22;11041;50.854;20.580;2023-08-20T15:01:07;32.20;99.90
21759;DHT22;11041;50.854;20.580;2023-08-20T15:03:34;32.40;99.90
21759;DHT22;11041;50.854;20.580;2023-08-20T15:06:09;32.10;99.90
21759;DHT22;11041;50.854;20.580;2023-08-20T15:08:47;32.30;99.90
21759;DHT22;11041;50.854;20.580;2023-08-20T15:11:21;31.80;99.90
21759;DHT22;11041;50.854;20.580;2023-08-20T15:13:51;32.20;99.90
21759;DHT22;11041;50.854;20.580;2023-08-20T15:16:22;31.70;99.90
21759;DHT22;11041;50.854;20.580;2023-08-20T15:18:52;31.40;99.90
21759;DHT22;11041;50.854;20.580;2023-08-20T15:21:23;31.30;99.90
21759;DHT22;11041;50.854;20.580;2023-08-20T15:23:55;31.30;99.90
21759;DHT22;11041;50.854;20.580;2023-08-20T15:26:27;30.80;99.90
21759;DHT22;11041;50.854;20.580;2023-08-20T15:29:02;30.90;99.90
21759;DHT22;11041;50.854;20.580;2023-08-20T15:31:32;31.10;99.90
21759;DHT22;11041;50.854;20.580;2023-08-20T15:34:01;30.80;99.90
21759;DHT22;11041;50.854;20.580;2023-08-20T15:36:36;30.60;99.90
21759;DHT22;11041;50.854;20.580;2023-08-20T15:39:09;30.40;99.90
21759;DHT22;11041;50.854;20.580;2023-08-20T15:41:41;30.30;99.90
21759;DHT22;11041;50.854;20.580;2023-08-20T15:44:11;30.40;99.90
21759;DHT22;11041;50.854;20.580;2023-08-20T15:46:53;30.10;99.90
21759;DHT22;11041;50.854;20.580;2023-08-20T15:49:22;30.20;99.90
21759;DHT22;11041;50.854;20.580;2023-08-20T15:51:56;30.10;99.90